Time;durP1;ratioP1;P1;durP2;ratioP2;P2;SDS_P1;SDS_P2;PMS_P1;PMS_P2;Temp;Humidity;BMP_temperature;BMP_pressure;BME280_temperature;BME280_humidity;BME280_pressure;Samples;Min_cycle;Max_cycle;Signal;HPM_P1;HPM_P2
2021/04/29 00:00:12;;;;;;;2.88;2.67;;;15.1;89.2;;;;;;;;;
2021/04/29 00:01:01;;;;;;;2.88;2.67;;;15.1;89.2;;;;;;;;;
2021/04/29 00:02:01;;;;;;;3.72;3;;;15;90;;;;;;;;;
2021/04/29 00:02:25;;;;;;;2.9;2.6;;;15;90.2;;;;;;;;;
2021/04/29 00:03:01;;;;;;;2.9;2.6;;;15;90.2;;;;;;;;;
2021/04/29 00:03:16;;;;;;;3.03;2.8;;;15.1;90.2;;;;;;;;;
2021/04/29 00:04:01;;;;;;;3.03;2.8;;;15.1;90.2;;;;;;;;;
2021/04/29 00:04:13;;;;;;;3.2;2.83;;;15.1;90.2;;;;;;;;;
2021/04/29 00:04:38;;;;;;;3.2;2.83;;;15.1;90.2;;;;;;;;;
2021/04/29 00:05:03;;;;;;;3.2;2.83;;;15.1;90.2;;;;;;;;;
2021/04/29 00:05:14;;;;;;;3.72;2.97;;;15;90.4;;;;;;;;;
2021/04/29 00:05:29;;;;;;;3.72;2.97;;;15;90.4;;;;;;;;;
2021/04/29 00:06:01;;;;;;;3.72;2.97;;;15;90.4;;;;;;;;;
2021/04/29 00:06:15;;;;;;;4.28;2.78;;;15;90.4;;;;;;;;;
2021/04/29 00:06:26;;;;;;;4.28;2.78;;;15;90.4;;;;;;;;;
2021/04/29 00:06:51;;;;;;;4.28;2.78;;;15;90.4;;;;;;;;;
2021/04/29 00:07:01;;;;;;;4.28;2.78;;;15;90.4;;;;;;;;;
2021/04/29 00:07:17;;;;;;;5.65;3.25;;;15;90.5;;;;;;;;;
2021/04/29 00:07:27;;;;;;;5.65;3.25;;;15;90.5;;;;;;;;;
2021/04/29 00:07:42;;;;;;;5.65;3.25;;;15;90.5;;;;;;;;;
2021/04/29 00:08:01;;;;;;;5.65;3.25;;;15;90.5;;;;;;;;;
2021/04/29 00:08:13;;;;;;;5.65;3.25;;;15;90.5;;;;;;;;;
2021/04/29 00:08:28;;;;;;;3.92;2.88;;;15;90.7;;;;;;;;;
2021/04/29 00:08:39;;;;;;;3.92;2.88;;;15;90.7;;;;;;;;;
2021/04/29 00:09:01;;;;;;;3.92;2.88;;;15;90.7;;;;;;;;;
2021/04/29 00:09:04;;;;;;;3.92;2.88;;;15;90.7;;;;;;;;;
2021/04/29 00:09:15;;;;;;;2.92;2.58;;;14.8;90.9;;;;;;;;;
2021/04/29 00:09:30;;;;;;;2.92;2.58;;;14.8;90.9;;;;;;;;;
2021/04/29 00:09:40;;;;;;;2.92;2.58;;;14.8;90.9;;;;;;;;;
2021/04/29 00:09:55;;;;;;;2.92;2.58;;;14.8;90.9;;;;;;;;;
2021/04/29 00:10:01;;;;;;;2.92;2.58;;;14.8;90.9;;;;;;;;;
2021/04/29 00:10:16;;;;;;;4.05;2.75;;;14.7;91;;;;;;;;;
2021/04/29 00:10:28;;;;;;;4.05;2.75;;;14.7;91;;;;;;;;;
2021/04/29 00:10:42;;;;;;;4.05;2.75;;;14.7;91;;;;;;;;;
2021/04/29 00:10:52;;;;;;;4.05;2.75;;;14.7;91;;;;;;;;;
2021/04/29 00:11:01;;;;;;;4.05;2.75;;;14.7;91;;;;;;;;;
2021/04/29 00:11:12;;;;;;;4.05;2.75;;;14.7;91;;;;;;;;;
2021/04/29 00:11:29;;;;;;;3.33;2.9;;;14.7;91.2;;;;;;;;;
2021/04/29 00:11:43;;;;;;;3.33;2.9;;;14.7;91.2;;;;;;;;;
2021/04/29 00:11:53;;;;;;;3.33;2.9;;;14.7;91.2;;;;;;;;;
2021/04/29 00:12:02;;;;;;;3.33;2.9;;;14.7;91.2;;;;;;;;;
2021/04/29 00:12:09;;;;;;;3.33;2.9;;;14.7;91.2;;;;;;;;;
2021/04/29 00:12:14;;;;;;;3.33;2.9;;;14.7;91.2;;;;;;;;;
2021/04/29 00:12:29;;;;;;;2.63;2.33;;;14.7;91.1;;;;;;;;;
2021/04/29 00:12:39;;;;;;;2.63;2.33;;;14.7;91.1;;;;;;;;;
2021/04/29 00:12:55;;;;;;;2.63;2.33;;;14.7;91.1;;;;;;;;;
2021/04/29 00:13:02;;;;;;;2.63;2.33;;;14.7;91.1;;;;;;;;;
2021/04/29 00:13:05;;;;;;;2.63;2.33;;;14.7;91.1;;;;;;;;;
2021/04/29 00:13:15;;;;;;;2.8;2.4;;;14.8;91.2;;;;;;;;;
2021/04/29 00:13:25;;;;;;;2.8;2.4;;;14.8;91.2;;;;;;;;;
2021/04/29 00:13:41;;;;;;;2.8;2.4;;;14.8;91.2;;;;;;;;;
2021/04/29 00:13:56;;;;;;;2.8;2.4;;;14.8;91.2;;;;;;;;;
2021/04/29 00:14:02;;;;;;;2.8;2.4;;;14.8;91.2;;;;;;;;;
2021/04/29 00:14:06;;;;;;;2.8;2.4;;;14.8;91.2;;;;;;;;;
2021/04/29 00:14:17;;;;;;;5.32;2.5;;;14.8;91.1;;;;;;;;;
2021/04/29 00:14:27;;;;;;;5.32;2.5;;;14.8;91.1;;;;;;;;;
2021/04/29 00:14:42;;;;;;;5.32;2.5;;;14.8;91.1;;;;;;;;;
2021/04/29 00:14:52;;;;;;;5.32;2.5;;;14.8;91.1;;;;;;;;;
2021/04/29 00:15:01;;;;;;;5.32;2.5;;;14.8;91.1;;;;;;;;;
2021/04/29 00:15:08;;;;;;;5.32;2.5;;;14.8;91.1;;;;;;;;;
2021/04/29 00:15:13;;;;;;;5.32;2.5;;;14.8;91.1;;;;;;;;;
2021/04/29 00:15:28;;;;;;;3.45;2.7;;;14.9;91.2;;;;;;;;;
2021/04/29 00:15:39;;;;;;;3.45;2.7;;;14.9;91.2;;;;;;;;;
2021/04/29 00:15:54;;;;;;;3.45;2.7;;;14.9;91.2;;;;;;;;;
2021/04/29 00:16:02;;;;;;;3.45;2.7;;;14.9;91.2;;;;;;;;;
2021/04/29 00:16:09;;;;;;;3.45;2.7;;;14.9;91.2;;;;;;;;;
2021/04/29 00:16:14;;;;;;;3.45;2.7;;;14.9;91.2;;;;;;;;;
2021/04/29 00:16:30;;;;;;;3.13;2.83;;;14.9;91.2;;;;;;;;;
2021/04/29 00:16:40;;;;;;;3.13;2.83;;;14.9;91.2;;;;;;;;;
2021/04/29 00:16:55;;;;;;;3.13;2.83;;;14.9;91.2;;;;;;;;;
2021/04/29 00:17:02;;;;;;;3.13;2.83;;;14.9;91.2;;;;;;;;;
2021/04/29 00:17:06;;;;;;;3.13;2.83;;;14.9;91.2;;;;;;;;;
2021/04/29 00:17:16;;;;;;;3.13;2.83;;;14.9;91.2;;;;;;;;;
2021/04/29 00:17:26;;;;;;;3.47;3.17;;;14.9;91.2;;;;;;;;;
2021/04/29 00:17:41;;;;;;;3.47;3.17;;;14.9;91.2;;;;;;;;;
2021/04/29 00:17:52;;;;;;;3.47;3.17;;;14.9;91.2;;;;;;;;;
2021/04/29 00:18:02;;;;;;;3.47;3.17;;;14.9;91.2;;;;;;;;;
2021/04/29 00:18:07;;;;;;;3.47;3.17;;;14.9;91.2;;;;;;;;;
2021/04/29 00:18:12;;;;;;;3.47;3.17;;;14.9;91.2;;;;;;;;;
2021/04/29 00:18:28;;;;;;;3.83;2.88;;;14.9;91.2;;;;;;;;;
2021/04/29 00:18:43;;;;;;;3.83;2.88;;;14.9;91.2;;;;;;;;;
2021/04/29 00:18:53;;;;;;;3.83;2.88;;;14.9;91.2;;;;;;;;;
2021/04/29 00:19:02;;;;;;;3.83;2.88;;;14.9;91.2;;;;;;;;;
2021/04/29 00:19:08;;;;;;;3.83;2.88;;;14.9;91.2;;;;;;;;;
2021/04/29 00:19:14;;;;;;;3.83;2.88;;;14.9;91.2;;;;;;;;;
2021/04/29 00:19:29;;;;;;;3.1;2.75;;;14.8;91.4;;;;;;;;;
2021/04/29 00:19:39;;;;;;;3.1;2.75;;;14.8;91.4;;;;;;;;;
2021/04/29 00:19:55;;;;;;;3.1;2.75;;;14.8;91.4;;;;;;;;;
2021/04/29 00:20:01;;;;;;;3.1;2.75;;;14.8;91.4;;;;;;;;;
2021/04/29 00:20:05;;;;;;;3.1;2.75;;;14.8;91.4;;;;;;;;;
2021/04/29 00:20:15;;;;;;;3.1;2.75;;;14.8;91.4;;;;;;;;;
2021/04/29 00:20:25;;;;;;;3.5;2.75;;;14.8;91.4;;;;;;;;;
2021/04/29 00:20:41;;;;;;;3.5;2.75;;;14.8;91.4;;;;;;;;;
2021/04/29 00:20:56;;;;;;;3.5;2.75;;;14.8;91.4;;;;;;;;;
2021/04/29 00:21:02;;;;;;;3.5;2.75;;;14.8;91.4;;;;;;;;;
2021/04/29 00:21:06;;;;;;;3.5;2.75;;;14.8;91.4;;;;;;;;;
2021/04/29 00:21:16;;;;;;;3.5;2.75;;;14.8;91.4;;;;;;;;;
2021/04/29 00:21:27;;;;;;;3.13;2.72;;;14.7;91.6;;;;;;;;;
2021/04/29 00:21:42;;;;;;;3.13;2.72;;;14.7;91.6;;;;;;;;;
2021/04/29 00:21:52;;;;;;;3.13;2.72;;;14.7;91.6;;;;;;;;;
2021/04/29 00:22:02;;;;;;;3.13;2.72;;;14.7;91.6;;;;;;;;;
2021/04/29 00:22:08;;;;;;;3.13;2.72;;;14.7;91.6;;;;;;;;;
2021/04/29 00:22:18;;;;;;;3.88;2.85;;;14.6;91.7;;;;;;;;;
2021/04/29 00:22:28;;;;;;;3.88;2.85;;;14.6;91.7;;;;;;;;;
2021/04/29 00:22:38;;;;;;;3.88;2.85;;;14.6;91.7;;;;;;;;;
2021/04/29 00:22:54;;;;;;;3.88;2.85;;;14.6;91.7;;;;;;;;;
2021/04/29 00:23:01;;;;;;;3.88;2.85;;;14.6;91.7;;;;;;;;;
2021/04/29 00:23:09;;;;;;;3.88;2.85;;;14.6;91.7;;;;;;;;;
2021/04/29 00:23:14;;;;;;;3.88;2.85;;;14.6;91.7;;;;;;;;;
2021/04/29 00:23:30;;;;;;;3.13;2.7;;;14.6;91.8;;;;;;;;;
2021/04/29 00:23:45;;;;;;;3.13;2.7;;;14.6;91.8;;;;;;;;;
2021/04/29 00:23:55;;;;;;;3.13;2.7;;;14.6;91.8;;;;;;;;;
2021/04/29 00:24:02;;;;;;;3.13;2.7;;;14.6;91.8;;;;;;;;;
2021/04/29 00:24:05;;;;;;;3.13;2.7;;;14.6;91.8;;;;;;;;;
2021/04/29 00:24:16;;;;;;;3.13;2.7;;;14.6;91.8;;;;;;;;;
2021/04/29 00:24:31;;;;;;;6;2.55;;;14.6;91.9;;;;;;;;;
2021/04/29 00:24:41;;;;;;;6;2.55;;;14.6;91.9;;;;;;;;;
2021/04/29 00:24:51;;;;;;;6;2.55;;;14.6;91.9;;;;;;;;;
2021/04/29 00:25:01;;;;;;;6;2.55;;;14.6;91.9;;;;;;;;;
2021/04/29 00:25:07;;;;;;;6;2.55;;;14.6;91.9;;;;;;;;;
2021/04/29 00:25:12;;;;;;;6;2.55;;;14.6;91.9;;;;;;;;;
2021/04/29 00:25:27;;;;;;;4.15;2.85;;;14.6;91.9;;;;;;;;;
2021/04/29 00:25:43;;;;;;;4.15;2.85;;;14.6;91.9;;;;;;;;;
2021/04/29 00:25:58;;;;;;;4.15;2.85;;;14.6;91.9;;;;;;;;;
2021/04/29 00:26:02;;;;;;;4.15;2.85;;;14.6;91.9;;;;;;;;;
2021/04/29 00:26:08;;;;;;;4.15;2.85;;;14.6;91.9;;;;;;;;;
2021/04/29 00:26:13;;;;;;;4.15;2.85;;;14.6;91.9;;;;;;;;;
2021/04/29 00:26:29;;;;;;;3.63;3.33;;;14.5;92.1;;;;;;;;;
2021/04/29 00:26:44;;;;;;;3.63;3.33;;;14.5;92.1;;;;;;;;;
2021/04/29 00:26:54;;;;;;;3.63;3.33;;;14.5;92.1;;;;;;;;;
2021/04/29 00:27:02;;;;;;;3.63;3.33;;;14.5;92.1;;;;;;;;;
2021/04/29 00:27:05;;;;;;;3.63;3.33;;;14.5;92.1;;;;;;;;;
2021/04/29 00:27:15;;;;;;;3.63;3.33;;;14.5;92.1;;;;;;;;;
2021/04/29 00:27:25;;;;;;;4.3;3;;;14.4;92.2;;;;;;;;;
2021/04/29 00:27:40;;;;;;;4.3;3;;;14.4;92.2;;;;;;;;;
2021/04/29 00:27:56;;;;;;;4.3;3;;;14.4;92.2;;;;;;;;;
2021/04/29 00:28:02;;;;;;;4.3;3;;;14.4;92.2;;;;;;;;;
2021/04/29 00:28:11;;;;;;;4.3;3;;;14.4;92.2;;;;;;;;;
2021/04/29 00:28:16;;;;;;;4.3;3;;;14.4;92.2;;;;;;;;;
2021/04/29 00:28:27;;;;;;;3.15;2.95;;;14.5;92.2;;;;;;;;;
2021/04/29 00:28:42;;;;;;;3.15;2.95;;;14.5;92.2;;;;;;;;;
2021/04/29 00:28:57;;;;;;;3.15;2.95;;;14.5;92.2;;;;;;;;;
2021/04/29 00:29:02;;;;;;;3.15;2.95;;;14.5;92.2;;;;;;;;;
2021/04/29 00:29:07;;;;;;;3.15;2.95;;;14.5;92.2;;;;;;;;;
2021/04/29 00:29:13;;;;;;;3.15;2.95;;;14.5;92.2;;;;;;;;;
2021/04/29 00:29:28;;;;;;;3.4;2.6;;;14.5;92.2;;;;;;;;;
2021/04/29 00:29:38;;;;;;;3.4;2.6;;;14.5;92.2;;;;;;;;;
2021/04/29 00:29:54;;;;;;;3.4;2.6;;;14.5;92.2;;;;;;;;;
2021/04/29 00:30:01;;;;;;;3.4;2.6;;;14.5;92.2;;;;;;;;;
2021/04/29 00:30:09;;;;;;;3.4;2.6;;;14.5;92.2;;;;;;;;;
2021/04/29 00:30:14;;;;;;;3.4;2.6;;;14.5;92.2;;;;;;;;;
2021/04/29 00:30:29;;;;;;;2.6;2.4;;;14.6;92.1;;;;;;;;;
2021/04/29 00:30:40;;;;;;;2.6;2.4;;;14.6;92.1;;;;;;;;;
2021/04/29 00:30:55;;;;;;;2.6;2.4;;;14.6;92.1;;;;;;;;;
2021/04/29 00:31:02;;;;;;;2.6;2.4;;;14.6;92.1;;;;;;;;;
2021/04/29 00:31:10;;;;;;;2.6;2.4;;;14.6;92.1;;;;;;;;;
2021/04/29 00:31:16;;;;;;;2.6;2.4;;;14.6;92.1;;;;;;;;;
2021/04/29 00:31:26;;;;;;;3.17;2.88;;;14.6;92;;;;;;;;;
2021/04/29 00:31:41;;;;;;;3.17;2.88;;;14.6;92;;;;;;;;;
2021/04/29 00:31:51;;;;;;;3.17;2.88;;;14.6;92;;;;;;;;;
2021/04/29 00:32:02;;;;;;;3.17;2.88;;;14.6;92;;;;;;;;;
2021/04/29 00:32:07;;;;;;;3.17;2.88;;;14.6;92;;;;;;;;;
2021/04/29 00:32:17;;;;;;;3.17;2.88;;;14.6;92;;;;;;;;;
2021/04/29 00:32:27;;;;;;;3.67;2.88;;;14.6;92.1;;;;;;;;;
2021/04/29 00:32:43;;;;;;;3.67;2.88;;;14.6;92.1;;;;;;;;;
2021/04/29 00:32:53;;;;;;;3.67;2.88;;;14.6;92.1;;;;;;;;;
2021/04/29 00:33:02;;;;;;;3.67;2.88;;;14.6;92.1;;;;;;;;;
2021/04/29 00:33:08;;;;;;;3.67;2.88;;;14.6;92.1;;;;;;;;;
2021/04/29 00:33:13;;;;;;;3.67;2.88;;;14.6;92.1;;;;;;;;;
2021/04/29 00:33:29;;;;;;;3.2;2.9;;;14.6;92.1;;;;;;;;;
2021/04/29 00:33:39;;;;;;;3.2;2.9;;;14.6;92.1;;;;;;;;;
2021/04/29 00:33:54;;;;;;;3.2;2.9;;;14.6;92.1;;;;;;;;;
2021/04/29 00:34:02;;;;;;;3.2;2.9;;;14.6;92.1;;;;;;;;;
2021/04/29 00:34:04;;;;;;;3.2;2.9;;;14.6;92.1;;;;;;;;;
2021/04/29 00:34:15;;;;;;;3.2;2.9;;;14.6;92.1;;;;;;;;;
2021/04/29 00:34:30;;;;;;;2.97;2.67;;;14.7;92.1;;;;;;;;;
2021/04/29 00:34:40;;;;;;;2.97;2.67;;;14.7;92.1;;;;;;;;;
2021/04/29 00:34:56;;;;;;;2.97;2.67;;;14.7;92.1;;;;;;;;;
2021/04/29 00:35:01;;;;;;;2.97;2.67;;;14.7;92.1;;;;;;;;;
2021/04/29 00:35:06;;;;;;;2.97;2.67;;;14.7;92.1;;;;;;;;;
2021/04/29 00:35:16;;;;;;;2.97;2.67;;;14.7;92.1;;;;;;;;;
2021/04/29 00:35:26;;;;;;;4.55;2.6;;;14.7;92.1;;;;;;;;;
2021/04/29 00:35:42;;;;;;;4.55;2.6;;;14.7;92.1;;;;;;;;;
2021/04/29 00:35:52;;;;;;;4.55;2.6;;;14.7;92.1;;;;;;;;;
2021/04/29 00:36:02;;;;;;;4.55;2.6;;;14.7;92.1;;;;;;;;;
2021/04/29 00:36:07;;;;;;;4.55;2.6;;;14.7;92.1;;;;;;;;;
2021/04/29 00:36:12;;;;;;;4.55;2.6;;;14.7;92.1;;;;;;;;;
2021/04/29 00:36:28;;;;;;;3.4;2.58;;;14.7;92;;;;;;;;;
2021/04/29 00:36:43;;;;;;;3.4;2.58;;;14.7;92;;;;;;;;;
2021/04/29 00:36:53;;;;;;;3.4;2.58;;;14.7;92;;;;;;;;;
2021/04/29 00:37:02;;;;;;;3.4;2.58;;;14.7;92;;;;;;;;;
2021/04/29 00:37:09;;;;;;;3.4;2.58;;;14.7;92;;;;;;;;;
2021/04/29 00:37:14;;;;;;;3.4;2.58;;;14.7;92;;;;;;;;;
2021/04/29 00:37:29;;;;;;;3.05;2.75;;;14.6;92.1;;;;;;;;;
2021/04/29 00:37:39;;;;;;;3.05;2.75;;;14.6;92.1;;;;;;;;;
2021/04/29 00:37:55;;;;;;;3.05;2.75;;;14.6;92.1;;;;;;;;;
2021/04/29 00:38:02;;;;;;;3.05;2.75;;;14.6;92.1;;;;;;;;;
2021/04/29 00:38:05;;;;;;;3.05;2.75;;;14.6;92.1;;;;;;;;;
2021/04/29 00:38:16;;;;;;;3.05;2.75;;;14.6;92.1;;;;;;;;;
2021/04/29 00:38:26;;;;;;;3.15;2.67;;;14.6;92.1;;;;;;;;;
2021/04/29 00:38:41;;;;;;;3.15;2.67;;;14.6;92.1;;;;;;;;;
2021/04/29 00:38:56;;;;;;;3.15;2.67;;;14.6;92.1;;;;;;;;;
2021/04/29 00:39:02;;;;;;;3.15;2.67;;;14.6;92.1;;;;;;;;;
2021/04/29 00:39:07;;;;;;;3.15;2.67;;;14.6;92.1;;;;;;;;;
2021/04/29 00:39:17;;;;;;;3.15;2.67;;;14.6;92.1;;;;;;;;;
2021/04/29 00:39:27;;;;;;;3.13;2.75;;;14.7;92.2;;;;;;;;;
2021/04/29 00:39:42;;;;;;;3.13;2.75;;;14.7;92.2;;;;;;;;;
2021/04/29 00:39:53;;;;;;;3.13;2.75;;;14.7;92.2;;;;;;;;;
2021/04/29 00:40:01;;;;;;;3.13;2.75;;;14.7;92.2;;;;;;;;;
2021/04/29 00:40:08;;;;;;;3.13;2.75;;;14.7;92.2;;;;;;;;;
2021/04/29 00:40:13;;;;;;;3.13;2.75;;;14.7;92.2;;;;;;;;;
2021/04/29 00:40:28;;;;;;;3.97;2.65;;;14.6;92.2;;;;;;;;;
2021/04/29 00:40:41;;;;;;;3.97;2.65;;;14.6;92.2;;;;;;;;;
2021/04/29 00:40:54;;;;;;;3.97;2.65;;;14.6;92.2;;;;;;;;;
2021/04/29 00:41:02;;;;;;;3.97;2.65;;;14.6;92.2;;;;;;;;;
2021/04/29 00:41:09;;;;;;;3.97;2.65;;;14.6;92.2;;;;;;;;;
2021/04/29 00:41:15;;;;;;;3.97;2.65;;;14.6;92.2;;;;;;;;;
2021/04/29 00:41:30;;;;;;;3.05;2.72;;;14.6;92.3;;;;;;;;;
2021/04/29 00:41:40;;;;;;;3.05;2.72;;;14.6;92.3;;;;;;;;;
2021/04/29 00:41:55;;;;;;;3.05;2.72;;;14.6;92.3;;;;;;;;;
2021/04/29 00:42:02;;;;;;;3.05;2.72;;;14.6;92.3;;;;;;;;;
2021/04/29 00:42:06;;;;;;;3.05;2.72;;;14.6;92.3;;;;;;;;;
2021/04/29 00:42:16;;;;;;;3.05;2.72;;;14.6;92.3;;;;;;;;;
2021/04/29 00:42:26;;;;;;;3.15;2.6;;;14.6;92.1;;;;;;;;;
2021/04/29 00:42:42;;;;;;;3.15;2.6;;;14.6;92.1;;;;;;;;;
2021/04/29 00:42:52;;;;;;;3.15;2.6;;;14.6;92.1;;;;;;;;;
2021/04/29 00:43:02;;;;;;;3.15;2.6;;;14.6;92.1;;;;;;;;;
2021/04/29 00:43:07;;;;;;;3.15;2.6;;;14.6;92.1;;;;;;;;;
2021/04/29 00:43:12;;;;;;;3.15;2.6;;;14.6;92.1;;;;;;;;;
2021/04/29 00:43:28;;;;;;;2.72;2.5;;;14.6;92.3;;;;;;;;;
2021/04/29 00:43:43;;;;;;;2.72;2.5;;;14.6;92.3;;;;;;;;;
2021/04/29 00:43:53;;;;;;;2.72;2.5;;;14.6;92.3;;;;;;;;;
2021/04/29 00:44:02;;;;;;;2.72;2.5;;;14.6;92.3;;;;;;;;;
2021/04/29 00:44:09;;;;;;;2.72;2.5;;;14.6;92.3;;;;;;;;;
2021/04/29 00:44:14;;;;;;;2.72;2.5;;;14.6;92.3;;;;;;;;;
2021/04/29 00:44:29;;;;;;;4.15;2.78;;;14.5;92.5;;;;;;;;;
2021/04/29 00:44:39;;;;;;;4.15;2.78;;;14.5;92.5;;;;;;;;;
2021/04/29 00:44:55;;;;;;;4.15;2.78;;;14.5;92.5;;;;;;;;;
2021/04/29 00:45:01;;;;;;;4.15;2.78;;;14.5;92.5;;;;;;;;;
2021/04/29 00:45:05;;;;;;;4.15;2.78;;;14.5;92.5;;;;;;;;;
2021/04/29 00:45:15;;;;;;;4.15;2.78;;;14.5;92.5;;;;;;;;;
2021/04/29 00:45:25;;;;;;;3.97;2.8;;;14.6;92.5;;;;;;;;;
2021/04/29 00:45:41;;;;;;;3.97;2.8;;;14.6;92.5;;;;;;;;;
2021/04/29 00:45:56;;;;;;;3.97;2.8;;;14.6;92.5;;;;;;;;;
2021/04/29 00:46:02;;;;;;;3.97;2.8;;;14.6;92.5;;;;;;;;;
2021/04/29 00:46:12;;;;;;;3.97;2.8;;;14.6;92.5;;;;;;;;;
2021/04/29 00:46:17;;;;;;;3.97;2.8;;;14.6;92.5;;;;;;;;;
2021/04/29 00:46:27;;;;;;;3.2;2.88;;;14.6;92.5;;;;;;;;;
2021/04/29 00:46:42;;;;;;;3.2;2.88;;;14.6;92.5;;;;;;;;;
2021/04/29 00:46:52;;;;;;;3.2;2.88;;;14.6;92.5;;;;;;;;;
2021/04/29 00:47:02;;;;;;;3.2;2.88;;;14.6;92.5;;;;;;;;;
2021/04/29 00:47:08;;;;;;;3.2;2.88;;;14.6;92.5;;;;;;;;;
2021/04/29 00:47:14;;;;;;;3.2;2.88;;;14.6;92.5;;;;;;;;;
2021/04/29 00:47:28;;;;;;;2.8;2.6;;;14.6;92.4;;;;;;;;;
2021/04/29 00:47:38;;;;;;;2.8;2.6;;;14.6;92.4;;;;;;;;;
2021/04/29 00:47:54;;;;;;;2.8;2.6;;;14.6;92.4;;;;;;;;;
2021/04/29 00:48:02;;;;;;;2.8;2.6;;;14.6;92.4;;;;;;;;;
2021/04/29 00:48:09;;;;;;;2.8;2.6;;;14.6;92.4;;;;;;;;;
2021/04/29 00:48:14;;;;;;;2.8;2.6;;;14.6;92.4;;;;;;;;;
2021/04/29 00:48:30;;;;;;;4;2.4;;;14.6;92.3;;;;;;;;;
2021/04/29 00:48:40;;;;;;;4;2.4;;;14.6;92.3;;;;;;;;;
2021/04/29 00:48:55;;;;;;;4;2.4;;;14.6;92.3;;;;;;;;;
2021/04/29 00:49:02;;;;;;;4;2.4;;;14.6;92.3;;;;;;;;;
2021/04/29 00:49:06;;;;;;;4;2.4;;;14.6;92.3;;;;;;;;;
2021/04/29 00:49:16;;;;;;;4;2.4;;;14.6;92.3;;;;;;;;;
2021/04/29 00:49:26;;;;;;;4.35;2.5;;;14.6;92.4;;;;;;;;;
2021/04/29 00:49:41;;;;;;;4.35;2.5;;;14.6;92.4;;;;;;;;;
2021/04/29 00:49:52;;;;;;;4.35;2.5;;;14.6;92.4;;;;;;;;;
2021/04/29 00:50:02;;;;;;;4.35;2.5;;;14.6;92.4;;;;;;;;;
2021/04/29 00:50:07;;;;;;;4.35;2.5;;;14.6;92.4;;;;;;;;;
2021/04/29 00:50:12;;;;;;;4.35;2.5;;;14.6;92.4;;;;;;;;;
2021/04/29 00:50:27;;;;;;;3.13;2.7;;;14.6;92.4;;;;;;;;;
2021/04/29 00:50:43;;;;;;;3.13;2.7;;;14.6;92.4;;;;;;;;;
2021/04/29 00:50:53;;;;;;;3.13;2.7;;;14.6;92.4;;;;;;;;;
2021/04/29 00:51:02;;;;;;;3.13;2.7;;;14.6;92.4;;;;;;;;;
2021/04/29 00:51:08;;;;;;;3.13;2.7;;;14.6;92.4;;;;;;;;;
2021/04/29 00:51:14;;;;;;;3.13;2.7;;;14.6;92.4;;;;;;;;;
2021/04/29 00:51:29;;;;;;;3.08;2.7;;;14.6;92.5;;;;;;;;;
2021/04/29 00:51:39;;;;;;;3.08;2.7;;;14.6;92.5;;;;;;;;;
2021/04/29 00:51:54;;;;;;;3.08;2.7;;;14.6;92.5;;;;;;;;;
2021/04/29 00:52:01;;;;;;;3.08;2.7;;;14.6;92.5;;;;;;;;;
2021/04/29 00:52:05;;;;;;;3.08;2.7;;;14.6;92.5;;;;;;;;;
2021/04/29 00:52:15;;;;;;;3.08;2.7;;;14.6;92.5;;;;;;;;;
2021/04/29 00:52:27;;;;;;;3.08;2.7;;;14.6;92.5;;;;;;;;;
2021/04/29 00:52:41;;;;;;;3.8;2.7;;;14.5;92.5;;;;;;;;;
2021/04/29 00:52:56;;;;;;;3.8;2.7;;;14.5;92.5;;;;;;;;;
2021/04/29 00:53:02;;;;;;;3.8;2.7;;;14.5;92.5;;;;;;;;;
2021/04/29 00:53:06;;;;;;;3.8;2.7;;;14.5;92.5;;;;;;;;;
2021/04/29 00:53:16;;;;;;;3.8;2.7;;;14.5;92.5;;;;;;;;;
2021/04/29 00:53:27;;;;;;;3.8;2.7;;;14.5;92.5;;;;;;;;;
2021/04/29 00:53:42;;;;;;;3.33;2.83;;;14.5;92.5;;;;;;;;;
2021/04/29 00:53:52;;;;;;;3.33;2.83;;;14.5;92.5;;;;;;;;;
2021/04/29 00:54:02;;;;;;;3.33;2.83;;;14.5;92.5;;;;;;;;;
2021/04/29 00:54:08;;;;;;;3.33;2.83;;;14.5;92.5;;;;;;;;;
2021/04/29 00:54:13;;;;;;;3.33;2.83;;;14.5;92.5;;;;;;;;;
2021/04/29 00:54:28;;;;;;;3.47;2.63;;;14.5;92.6;;;;;;;;;
2021/04/29 00:54:38;;;;;;;3.47;2.63;;;14.5;92.6;;;;;;;;;
2021/04/29 00:54:54;;;;;;;3.47;2.63;;;14.5;92.6;;;;;;;;;
2021/04/29 00:55:02;;;;;;;3.47;2.63;;;14.5;92.6;;;;;;;;;
2021/04/29 00:55:09;;;;;;;3.47;2.63;;;14.5;92.6;;;;;;;;;
2021/04/29 00:55:14;;;;;;;3.47;2.63;;;14.5;92.6;;;;;;;;;
2021/04/29 00:55:30;;;;;;;3;2.7;;;14.5;92.6;;;;;;;;;
2021/04/29 00:55:45;;;;;;;3;2.7;;;14.5;92.6;;;;;;;;;
2021/04/29 00:55:55;;;;;;;3;2.7;;;14.5;92.6;;;;;;;;;
2021/04/29 00:56:02;;;;;;;3;2.7;;;14.5;92.6;;;;;;;;;
2021/04/29 00:56:05;;;;;;;3;2.7;;;14.5;92.6;;;;;;;;;
2021/04/29 00:56:16;;;;;;;3;2.7;;;14.5;92.6;;;;;;;;;
2021/04/29 00:56:26;;;;;;;3;2.7;;;14.5;92.6;;;;;;;;;
2021/04/29 00:56:41;;;;;;;4.1;2.65;;;14.3;92.7;;;;;;;;;
2021/04/29 00:56:51;;;;;;;4.1;2.65;;;14.3;92.7;;;;;;;;;
2021/04/29 00:57:01;;;;;;;4.1;2.65;;;14.3;92.7;;;;;;;;;
2021/04/29 00:57:07;;;;;;;4.1;2.65;;;14.3;92.7;;;;;;;;;
2021/04/29 00:57:17;;;;;;;4.1;2.65;;;14.3;92.7;;;;;;;;;
2021/04/29 00:57:27;;;;;;;4.1;2.65;;;14.3;92.7;;;;;;;;;
2021/04/29 00:57:43;;;;;;;4.2;3;;;14.4;92.6;;;;;;;;;
2021/04/29 00:57:58;;;;;;;4.2;3;;;14.4;92.6;;;;;;;;;
2021/04/29 00:58:02;;;;;;;4.2;3;;;14.4;92.6;;;;;;;;;
2021/04/29 00:58:08;;;;;;;4.2;3;;;14.4;92.6;;;;;;;;;
2021/04/29 00:58:13;;;;;;;4.2;3;;;14.4;92.6;;;;;;;;;
2021/04/29 00:58:29;;;;;;;3.13;2.63;;;14.4;92.5;;;;;;;;;
2021/04/29 00:58:39;;;;;;;3.13;2.63;;;14.4;92.5;;;;;;;;;
2021/04/29 00:58:54;;;;;;;3.13;2.63;;;14.4;92.5;;;;;;;;;
2021/04/29 00:59:02;;;;;;;3.13;2.63;;;14.4;92.5;;;;;;;;;
2021/04/29 00:59:05;;;;;;;3.13;2.63;;;14.4;92.5;;;;;;;;;
2021/04/29 00:59:15;;;;;;;3.13;2.63;;;14.4;92.5;;;;;;;;;
2021/04/29 00:59:30;;;;;;;4.03;2.6;;;14.4;92.5;;;;;;;;;
2021/04/29 00:59:40;;;;;;;4.03;2.6;;;14.4;92.5;;;;;;;;;
2021/04/29 00:59:56;;;;;;;4.03;2.6;;;14.4;92.5;;;;;;;;;
2021/04/29 01:00:02;;;;;;;4.03;2.6;;;14.4;92.5;;;;;;;;;
2021/04/29 01:00:11;;;;;;;4.03;2.6;;;14.4;92.5;;;;;;;;;
2021/04/29 01:00:16;;;;;;;4.03;2.6;;;14.4;92.5;;;;;;;;;
2021/04/29 01:00:27;;;;;;;4.03;2.6;;;14.4;92.5;;;;;;;;;
2021/04/29 01:00:42;;;;;;;3.13;2.83;;;14.4;92.5;;;;;;;;;
2021/04/29 01:00:52;;;;;;;3.13;2.83;;;14.4;92.5;;;;;;;;;
2021/04/29 01:01:02;;;;;;;3.13;2.83;;;14.4;92.5;;;;;;;;;
2021/04/29 01:01:08;;;;;;;3.13;2.83;;;14.4;92.5;;;;;;;;;
2021/04/29 01:01:13;;;;;;;3.13;2.83;;;14.4;92.5;;;;;;;;;
2021/04/29 01:01:28;;;;;;;3.13;2.83;;;14.4;92.5;;;;;;;;;
2021/04/29 01:01:43;;;;;;;4.43;2.58;;;14.5;92.4;;;;;;;;;
2021/04/29 01:01:54;;;;;;;4.43;2.58;;;14.5;92.4;;;;;;;;;
2021/04/29 01:02:01;;;;;;;4.43;2.58;;;14.5;92.4;;;;;;;;;
2021/04/29 01:02:09;;;;;;;4.43;2.58;;;14.5;92.4;;;;;;;;;
2021/04/29 01:02:14;;;;;;;4.43;2.58;;;14.5;92.4;;;;;;;;;
2021/04/29 01:02:29;;;;;;;4.43;2.58;;;14.5;92.4;;;;;;;;;
2021/04/29 01:02:40;;;;;;;2.63;2.4;;;14.5;92.4;;;;;;;;;
2021/04/29 01:02:55;;;;;;;2.63;2.4;;;14.5;92.4;;;;;;;;;
2021/04/29 01:03:02;;;;;;;2.63;2.4;;;14.5;92.4;;;;;;;;;
2021/04/29 01:03:05;;;;;;;2.63;2.4;;;14.5;92.4;;;;;;;;;
2021/04/29 01:03:15;;;;;;;2.63;2.4;;;14.5;92.4;;;;;;;;;
2021/04/29 01:03:26;;;;;;;2.63;2.4;;;14.5;92.4;;;;;;;;;
2021/04/29 01:03:41;;;;;;;3.17;2.47;;;14.5;92.4;;;;;;;;;
2021/04/29 01:03:56;;;;;;;3.17;2.47;;;14.5;92.4;;;;;;;;;
2021/04/29 01:04:02;;;;;;;3.17;2.47;;;14.5;92.4;;;;;;;;;
2021/04/29 01:04:07;;;;;;;3.17;2.47;;;14.5;92.4;;;;;;;;;
2021/04/29 01:04:17;;;;;;;3.17;2.47;;;14.5;92.4;;;;;;;;;
2021/04/29 01:04:27;;;;;;;3.17;2.47;;;14.5;92.4;;;;;;;;;
2021/04/29 01:04:45;;;;;;;2.78;2.58;;;14.4;92.4;;;;;;;;;
2021/04/29 01:04:53;;;;;;;2.78;2.58;;;14.4;92.4;;;;;;;;;
2021/04/29 01:05:02;;;;;;;2.78;2.58;;;14.4;92.4;;;;;;;;;
2021/04/29 01:05:13;;;;;;;2.78;2.58;;;14.4;92.4;;;;;;;;;
2021/04/29 01:05:18;;;;;;;2.78;2.58;;;14.4;92.4;;;;;;;;;
2021/04/29 01:05:29;;;;;;;2.78;2.58;;;14.4;92.4;;;;;;;;;
2021/04/29 01:05:44;;;;;;;3.03;2.8;;;14.5;92.5;;;;;;;;;
2021/04/29 01:05:59;;;;;;;3.03;2.8;;;14.5;92.5;;;;;;;;;
2021/04/29 01:06:02;;;;;;;3.03;2.8;;;14.5;92.5;;;;;;;;;
2021/04/29 01:06:10;;;;;;;3.03;2.8;;;14.5;92.5;;;;;;;;;
2021/04/29 01:06:20;;;;;;;3.03;2.8;;;14.5;92.5;;;;;;;;;
2021/04/29 01:06:30;;;;;;;3.03;2.8;;;14.5;92.5;;;;;;;;;
2021/04/29 01:06:40;;;;;;;5.13;2.5;;;14.4;92.4;;;;;;;;;
2021/04/29 01:07:01;;;;;;;5.13;2.5;;;14.4;92.4;;;;;;;;;
2021/04/29 01:07:01;;;;;;;5.13;2.5;;;14.4;92.4;;;;;;;;;
2021/04/29 01:07:06;;;;;;;5.13;2.5;;;14.4;92.4;;;;;;;;;
2021/04/29 01:07:16;;;;;;;5.13;2.5;;;14.4;92.4;;;;;;;;;
2021/04/29 01:07:31;;;;;;;2.75;2.3;;;14.5;92.3;;;;;;;;;
2021/04/29 01:07:42;;;;;;;2.75;2.3;;;14.5;92.3;;;;;;;;;
2021/04/29 01:07:57;;;;;;;2.75;2.3;;;14.5;92.3;;;;;;;;;
2021/04/29 01:08:02;;;;;;;2.75;2.3;;;14.5;92.3;;;;;;;;;
2021/04/29 01:08:12;;;;;;;2.75;2.3;;;14.5;92.3;;;;;;;;;
2021/04/29 01:08:18;;;;;;;2.75;2.3;;;14.5;92.3;;;;;;;;;
2021/04/29 01:08:33;;;;;;;3;2.67;;;14.5;92.3;;;;;;;;;
2021/04/29 01:08:43;;;;;;;3;2.67;;;14.5;92.3;;;;;;;;;
2021/04/29 01:08:53;;;;;;;3;2.67;;;14.5;92.3;;;;;;;;;
2021/04/29 01:09:01;;;;;;;3;2.67;;;14.5;92.3;;;;;;;;;
2021/04/29 01:09:14;;;;;;;3;2.67;;;14.5;92.3;;;;;;;;;
2021/04/29 01:09:19;;;;;;;3;2.67;;;14.5;92.3;;;;;;;;;
2021/04/29 01:09:29;;;;;;;3;2.67;;;14.5;92.3;;;;;;;;;
2021/04/29 01:09:45;;;;;;;3.1;2.8;;;14.5;92.2;;;;;;;;;
2021/04/29 01:09:55;;;;;;;3.1;2.8;;;14.5;92.2;;;;;;;;;
2021/04/29 01:10:02;;;;;;;3.1;2.8;;;14.5;92.2;;;;;;;;;
2021/04/29 01:10:10;;;;;;;3.1;2.8;;;14.5;92.2;;;;;;;;;
2021/04/29 01:10:25;;;;;;;3.1;2.8;;;14.5;92.2;;;;;;;;;
2021/04/29 01:10:36;;;;;;;4.82;2.67;;;14.5;92.3;;;;;;;;;
2021/04/29 01:10:46;;;;;;;4.82;2.67;;;14.5;92.3;;;;;;;;;
2021/04/29 01:11:01;;;;;;;4.82;2.67;;;14.5;92.3;;;;;;;;;
2021/04/29 01:11:02;;;;;;;4.82;2.67;;;14.5;92.3;;;;;;;;;
2021/04/29 01:11:07;;;;;;;4.82;2.67;;;14.5;92.3;;;;;;;;;
2021/04/29 01:11:17;;;;;;;4.82;2.67;;;14.5;92.3;;;;;;;;;
2021/04/29 01:11:32;;;;;;;4.82;2.67;;;14.5;92.3;;;;;;;;;
2021/04/29 01:11:42;;;;;;;4.28;2.8;;;14.5;92.3;;;;;;;;;
2021/04/29 01:11:58;;;;;;;4.28;2.8;;;14.5;92.3;;;;;;;;;
2021/04/29 01:12:02;;;;;;;4.28;2.8;;;14.5;92.3;;;;;;;;;
2021/04/29 01:12:13;;;;;;;4.28;2.8;;;14.5;92.3;;;;;;;;;
2021/04/29 01:12:18;;;;;;;4.28;2.8;;;14.5;92.3;;;;;;;;;
2021/04/29 01:12:39;;;;;;;2.63;2.33;;;14.5;92.2;;;;;;;;;
2021/04/29 01:12:49;;;;;;;2.63;2.33;;;14.5;92.2;;;;;;;;;
2021/04/29 01:12:59;;;;;;;2.63;2.33;;;14.5;92.2;;;;;;;;;
2021/04/29 01:13:02;;;;;;;2.63;2.33;;;14.5;92.2;;;;;;;;;
2021/04/29 01:13:15;;;;;;;2.63;2.33;;;14.5;92.2;;;;;;;;;
2021/04/29 01:13:20;;;;;;;2.63;2.33;;;14.5;92.2;;;;;;;;;
2021/04/29 01:13:30;;;;;;;2.63;2.33;;;14.5;92.2;;;;;;;;;
2021/04/29 01:13:45;;;;;;;2.4;2.2;;;14.5;92.1;;;;;;;;;
2021/04/29 01:13:56;;;;;;;2.4;2.2;;;14.5;92.1;;;;;;;;;
2021/04/29 01:14:01;;;;;;;2.4;2.2;;;14.5;92.1;;;;;;;;;
2021/04/29 01:14:11;;;;;;;2.4;2.2;;;14.5;92.1;;;;;;;;;
2021/04/29 01:14:16;;;;;;;2.4;2.2;;;14.5;92.1;;;;;;;;;
2021/04/29 01:14:31;;;;;;;2.4;2.2;;;14.5;92.1;;;;;;;;;
2021/04/29 01:14:57;;;;;;;2.42;2.22;;;14.5;92.1;;;;;;;;;
2021/04/29 01:15:02;;;;;;;2.42;2.22;;;14.5;92.1;;;;;;;;;
2021/04/29 01:15:07;;;;;;;2.42;2.22;;;14.5;92.1;;;;;;;;;
2021/04/29 01:15:17;;;;;;;2.42;2.22;;;14.5;92.1;;;;;;;;;
2021/04/29 01:15:17;;;;;;;2.42;2.22;;;14.5;92.1;;;;;;;;;
2021/04/29 01:15:33;;;;;;;2.42;2.22;;;14.5;92.1;;;;;;;;;
2021/04/29 01:15:43;;;;;;;3.63;2.58;;;14.5;92.2;;;;;;;;;
2021/04/29 01:15:58;;;;;;;3.63;2.58;;;14.5;92.2;;;;;;;;;
2021/04/29 01:16:02;;;;;;;3.63;2.58;;;14.5;92.2;;;;;;;;;